Time;durP1;ratioP1;P1;durP2;ratioP2;P2;SDS_P1;SDS_P2;PMS_P1;PMS_P2;Temp;Humidity;BMP_temperature;BMP_pressure;BME280_temperature;BME280_humidity;BME280_pressure;Samples;Min_cycle;Max_cycle;Signal;HPM_P1;HPM_P2
2021/03/04 00:00:51;;;;;;;40.73;21.50;;;4.20;99.90;;;;;;5029627;28;20185;-81
2021/03/04 00:03:17;;;;;;;43.53;19.80;;;4.20;99.90;;;;;;5027926;28;20216;-81
2021/03/04 00:05:42;;;;;;;44.47;20.80;;;4.20;99.90;;;;;;5020206;28;20216;-81
2021/03/04 00:08:08;;;;;;;39.50;21.87;;;4.20;99.90;;;;;;5024742;28;20693;-81
2021/03/04 00:10:34;;;;;;;41.17;20.03;;;4.10;99.90;;;;;;5023842;28;20190;-81
2021/03/04 00:13:00;;;;;;;33.10;18.20;;;4.10;99.90;;;;;;5030922;28;20280;-81
2021/03/04 00:15:30;;;;;;;40.23;19.80;;;4.10;99.90;;;;;;5027399;28;20594;-81
2021/03/04 00:17:56;;;;;;;40.43;20.03;;;4.00;99.90;;;;;;5022794;28;20178;-81
2021/03/04 00:20:24;;;;;;;39.20;19.37;;;4.00;99.90;;;;;;5022997;28;20532;-81
2021/03/04 00:22:50;;;;;;;42.20;19.27;;;4.00;99.90;;;;;;5039488;28;20173;-81
2021/03/04 00:25:17;;;;;;;41.70;19.63;;;4.00;99.90;;;;;;5028965;28;20455;-81
2021/03/04 00:27:43;;;;;;;46.03;20.90;;;4.00;99.90;;;;;;5030594;28;20178;-80
2021/03/04 00:30:10;;;;;;;48.40;19.80;;;3.90;99.90;;;;;;5029149;28;20457;-81
2021/03/04 00:32:37;;;;;;;43.03;19.30;;;3.80;99.90;;;;;;5025024;28;20176;-81
2021/03/04 00:35:05;;;;;;;44.23;20.97;;;3.80;99.90;;;;;;5025133;28;20446;-81
2021/03/04 00:37:30;;;;;;;43.47;20.57;;;3.80;99.90;;;;;;5028824;28;20892;-81
2021/03/04 00:39:56;;;;;;;43.00;21.60;;;3.90;99.90;;;;;;5026934;28;20474;-81
2021/03/04 00:42:22;;;;;;;41.13;19.57;;;3.80;99.90;;;;;;5028220;28;20180;-81
2021/03/04 00:44:47;;;;;;;51.33;19.77;;;3.80;99.90;;;;;;5030325;28;20197;-81
2021/03/04 00:47:13;;;;;;;42.17;20.73;;;3.80;99.90;;;;;;5032179;28;20184;-81
2021/03/04 00:49:39;;;;;;;39.90;19.33;;;3.80;99.90;;;;;;5026529;28;20185;-81
2021/03/04 00:52:05;;;;;;;41.83;18.87;;;3.80;99.90;;;;;;5028974;28;20177;-81
2021/03/04 00:54:31;;;;;;;43.57;18.93;;;3.90;99.90;;;;;;5029853;28;20837;-81
2021/03/04 00:56:57;;;;;;;39.23;20.90;;;3.90;99.90;;;;;;5029949;28;20494;-81
2021/03/04 00:59:22;;;;;;;41.43;20.20;;;4.00;99.90;;;;;;5028074;28;20177;-81
2021/03/04 01:01:48;;;;;;;44.83;18.83;;;3.90;99.90;;;;;;5024833;28;20211;-81
2021/03/04 01:04:14;;;;;;;35.27;18.40;;;3.90;99.90;;;;;;5029933;28;20593;-81
2021/03/04 01:06:39;;;;;;;41.30;21.87;;;3.90;99.90;;;;;;5037852;28;20468;-81
2021/03/04 01:11:40;;;;;;;41.83;19.70;;;3.80;99.90;;;;;;5417410;23;20221;-80
2021/03/04 01:14:06;;;;;;;37.33;20.63;;;3.80;99.90;;;;;;5015827;28;20448;-80
2021/03/04 01:16:32;;;;;;;45.30;20.90;;;3.80;99.90;;;;;;5007095;28;20210;-81
2021/03/04 01:18:58;;;;;;;50.37;21.63;;;3.80;99.90;;;;;;5004993;28;20437;-80
2021/03/04 01:21:23;;;;;;;38.20;19.90;;;3.80;99.90;;;;;;5013909;28;20185;-81
2021/03/04 01:23:49;;;;;;;38.80;20.10;;;3.80;99.90;;;;;;5015693;28;20173;-81
2021/03/04 01:26:15;;;;;;;45.00;19.17;;;3.80;99.90;;;;;;5011527;28;20689;-83
2021/03/04 01:28:40;;;;;;;48.87;20.90;;;3.80;99.90;;;;;;5012445;28;20180;-82
2021/03/04 01:31:06;;;;;;;36.03;18.60;;;3.80;99.90;;;;;;5008606;28;20261;-83
2021/03/04 01:33:32;;;;;;;40.17;19.77;;;3.80;99.90;;;;;;5015813;28;20186;-82
2021/03/04 01:35:57;;;;;;;45.20;19.43;;;3.80;99.90;;;;;;5010348;28;20186;-82
2021/03/04 01:38:23;;;;;;;43.53;19.70;;;3.80;99.90;;;;;;5013669;28;20189;-82
2021/03/04 01:40:49;;;;;;;48.73;21.17;;;3.90;99.90;;;;;;5014705;28;20217;-82
2021/03/04 01:43:14;;;;;;;44.57;21.37;;;3.90;99.90;;;;;;5005110;28;20576;-83
2021/03/04 01:45:40;;;;;;;37.00;20.13;;;3.90;99.90;;;;;;5009938;28;20631;-83
2021/03/04 01:48:06;;;;;;;40.03;19.23;;;4.00;99.90;;;;;;5008966;28;20620;-83
2021/03/04 01:50:32;;;;;;;49.53;22.07;;;3.90;99.90;;;;;;5026479;28;20200;-81
2021/03/04 01:52:58;;;;;;;37.30;19.93;;;4.00;99.90;;;;;;5016367;28;20429;-82
2021/03/04 01:55:24;;;;;;;37.47;20.80;;;3.90;99.90;;;;;;5009060;28;20194;-81
2021/03/04 01:57:51;;;;;;;46.77;21.97;;;3.90;99.90;;;;;;5013332;28;20492;-81
2021/03/04 02:00:20;;;;;;;36.70;19.87;;;3.90;99.90;;;;;;5012477;28;20936;-81
2021/03/04 02:02:45;;;;;;;42.53;21.00;;;3.80;99.90;;;;;;5007300;28;20474;-82
2021/03/04 02:05:14;;;;;;;41.47;23.40;;;3.90;99.90;;;;;;5015580;28;20552;-81
2021/03/04 02:07:57;;;;;;;40.57;21.60;;;3.90;99.90;;;;;;5010518;28;20201;-81
2021/03/04 02:10:59;;;;;;;47.73;22.17;;;3.80;99.90;;;;;;5013851;28;20955;-81
2021/03/04 02:13:45;;;;;;;38.60;20.13;;;3.80;99.90;;;;;;5014389;28;20432;-82
2021/03/04 02:16:37;;;;;;;50.53;22.20;;;3.80;99.90;;;;;;5010124;28;20490;-82
2021/03/04 02:19:08;;;;;;;37.83;20.67;;;3.80;99.90;;;;;;5009057;28;20428;-82
2021/03/04 02:21:54;;;;;;;45.17;22.47;;;3.80;99.90;;;;;;5008439;28;20433;-82
2021/03/04 02:24:35;;;;;;;40.47;20.43;;;3.90;99.90;;;;;;5003476;28;20970;-82
2021/03/04 02:27:09;;;;;;;46.57;23.10;;;3.80;99.90;;;;;;5003718;28;20423;-82
2021/03/04 02:29:42;;;;;;;48.63;24.70;;;3.80;99.90;;;;;;5007096;28;20416;-82
2021/03/04 02:32:09;;;;;;;53.83;25.17;;;3.80;99.90;;;;;;5007884;28;20425;-82
2021/03/04 02:34:42;;;;;;;46.53;23.13;;;3.80;99.90;;;;;;5009462;28;20429;-82
2021/03/04 02:37:10;;;;;;;48.03;24.50;;;3.80;99.90;;;;;;5010972;28;20437;-82
2021/03/04 02:39:36;;;;;;;46.47;23.20;;;3.80;99.90;;;;;;5014531;28;20443;-82
2021/03/04 02:42:02;;;;;;;44.77;24.93;;;3.70;99.90;;;;;;5010153;28;20430;-82
2021/03/04 02:44:29;;;;;;;42.80;23.53;;;3.70;99.90;;;;;;5005870;28;20476;-82
2021/03/04 02:46:56;;;;;;;41.60;24.40;;;3.80;99.90;;;;;;5007882;28;20476;-81
2021/03/04 02:49:22;;;;;;;40.50;23.37;;;3.70;99.90;;;;;;5009725;28;20432;-81
2021/03/04 02:51:49;;;;;;;39.43;22.10;;;3.80;99.90;;;;;;5010718;28;20433;-81
2021/03/04 02:54:15;;;;;;;42.10;22.53;;;3.80;99.90;;;;;;5001132;28;20435;-81
2021/03/04 02:56:43;;;;;;;42.47;23.70;;;3.70;99.90;;;;;;4999471;28;20878;-81
2021/03/04 02:59:09;;;;;;;35.20;20.33;;;3.70;99.90;;;;;;5006944;28;20897;-81
2021/03/04 03:01:35;;;;;;;35.40;20.50;;;3.70;99.90;;;;;;4996471;28;20429;-81
2021/03/04 03:04:03;;;;;;;32.57;18.27;;;3.60;99.90;;;;;;5008071;28;20428;-82
2021/03/04 03:06:29;;;;;;;33.40;17.27;;;3.60;99.90;;;;;;4998996;28;20463;-82
2021/03/04 03:08:55;;;;;;;33.80;18.83;;;3.50;99.90;;;;;;5006198;28;20422;-81
2021/03/04 03:11:21;;;;;;;27.30;15.77;;;3.50;99.90;;;;;;5021105;28;20726;-81
2021/03/04 03:13:50;;;;;;;32.80;16.60;;;3.40;99.90;;;;;;5009499;28;20926;-82
2021/03/04 03:16:16;;;;;;;25.90;16.37;;;3.40;99.90;;;;;;5004228;28;20426;-82
2021/03/04 03:18:42;;;;;;;26.37;16.10;;;3.30;99.90;;;;;;5009409;28;20765;-81
2021/03/04 03:21:08;;;;;;;33.87;16.40;;;3.30;99.90;;;;;;5009944;28;20439;-81
2021/03/04 03:23:33;;;;;;;26.60;14.80;;;3.30;99.90;;;;;;5008903;28;20615;-81
2021/03/04 03:25:59;;;;;;;29.47;15.23;;;3.30;99.90;;;;;;5007781;28;20201;-81
2021/03/04 03:28:26;;;;;;;21.47;13.43;;;3.20;99.90;;;;;;5007770;28;20235;-82
2021/03/04 03:30:52;;;;;;;29.33;14.40;;;3.30;99.90;;;;;;5004990;28;20429;-81
2021/03/04 03:33:18;;;;;;;23.63;14.30;;;3.30;99.90;;;;;;4997774;28;20425;-81
2021/03/04 03:35:47;;;;;;;24.57;14.17;;;3.20;99.90;;;;;;5003339;28;20425;-81
2021/03/04 03:38:15;;;;;;;25.93;13.27;;;3.30;99.90;;;;;;5010358;28;20458;-81
2021/03/04 03:40:46;;;;;;;21.17;13.30;;;3.30;99.90;;;;;;5012994;28;20419;-81
2021/03/04 03:43:14;;;;;;;20.27;12.27;;;3.40;99.90;;;;;;5001628;28;20515;-81
2021/03/04 03:45:45;;;;;;;22.87;12.40;;;3.30;99.90;;;;;;5012484;28;20453;-81
2021/03/04 03:48:16;;;;;;;20.10;12.27;;;3.30;99.90;;;;;;5004455;28;21252;-81
2021/03/04 03:50:44;;;;;;;26.50;13.77;;;3.40;99.90;;;;;;5010383;28;20840;-81
2021/03/04 03:53:14;;;;;;;23.93;12.53;;;3.30;99.90;;;;;;5002200;28;20436;-81
2021/03/04 03:55:52;;;;;;;19.57;11.73;;;3.40;99.90;;;;;;5010161;28;20426;-82
2021/03/04 03:58:20;;;;;;;17.37;10.57;;;3.30;99.90;;;;;;5002183;28;20435;-83
2021/03/04 04:00:46;;;;;;;17.50;10.40;;;3.20;99.90;;;;;;4999045;28;20440;-82
2021/03/04 04:03:12;;;;;;;18.27;10.00;;;3.20;99.90;;;;;;5012521;28;20428;-82
2021/03/04 04:05:38;;;;;;;18.97;10.53;;;3.30;99.90;;;;;;5006885;28;20525;-81
2021/03/04 04:08:04;;;;;;;20.17;9.77;;;3.20;99.90;;;;;;5026787;28;20181;-81
2021/03/04 04:10:33;;;;;;;17.20;9.70;;;3.20;99.90;;;;;;5006966;28;20434;-81
2021/03/04 04:13:00;;;;;;;18.03;9.40;;;3.20;99.90;;;;;;5006916;28;20950;-82
2021/03/04 04:15:27;;;;;;;15.10;9.50;;;3.30;99.90;;;;;;5012377;28;20530;-82
2021/03/04 04:17:57;;;;;;;16.00;9.27;;;3.30;99.90;;;;;;5002642;28;20444;-82
2021/03/04 04:20:24;;;;;;;10.83;7.20;;;3.20;99.90;;;;;;5024373;28;20466;-82
2021/03/04 04:22:51;;;;;;;12.40;8.07;;;3.30;99.90;;;;;;5019944;28;20811;-82
2021/03/04 04:25:22;;;;;;;12.50;7.60;;;3.20;99.90;;;;;;5010455;28;20481;-82
2021/03/04 04:27:50;;;;;;;11.00;6.20;;;3.30;99.90;;;;;;5004275;28;20492;-82
2021/03/04 04:30:16;;;;;;;10.27;7.10;;;3.30;99.90;;;;;;5002614;28;20516;-82
2021/03/04 04:32:42;;;;;;;11.37;7.90;;;3.30;99.90;;;;;;4999739;28;20522;-81
2021/03/04 04:35:09;;;;;;;13.47;7.80;;;3.30;99.90;;;;;;5009877;28;20438;-81
2021/03/04 04:37:34;;;;;;;13.00;7.37;;;3.20;99.90;;;;;;5012062;28;20438;-81
2021/03/04 04:40:00;;;;;;;11.87;7.10;;;3.10;99.90;;;;;;5007763;28;20519;-81
2021/03/04 04:42:26;;;;;;;11.93;7.30;;;3.20;99.90;;;;;;5015743;28;20243;-81
2021/03/04 04:44:52;;;;;;;10.97;6.70;;;3.20;99.90;;;;;;5008369;28;20195;-81
2021/03/04 04:47:17;;;;;;;9.73;5.90;;;3.20;99.90;;;;;;5011381;28;20432;-81
2021/03/04 04:49:43;;;;;;;12.60;7.10;;;3.10;99.90;;;;;;5032229;28;20174;-81
2021/03/04 04:52:09;;;;;;;11.47;6.27;;;3.10;99.90;;;;;;5010351;28;20184;-81
2021/03/04 04:54:34;;;;;;;11.53;8.00;;;3.20;99.90;;;;;;5013607;28;20285;-81
2021/03/04 04:57:00;;;;;;;11.20;7.37;;;3.20;99.90;;;;;;5009594;28;20188;-81
2021/03/04 04:59:26;;;;;;;9.73;7.27;;;3.20;99.90;;;;;;5006316;28;20192;-81
2021/03/04 05:01:51;;;;;;;10.97;7.20;;;3.20;99.90;;;;;;5015721;28;20492;-81
2021/03/04 05:04:17;;;;;;;11.23;6.90;;;3.20;99.90;;;;;;5007921;28;20664;-81
2021/03/04 05:06:43;;;;;;;11.97;6.83;;;3.20;99.90;;;;;;5001806;28;20177;-81
2021/03/04 05:09:08;;;;;;;8.77;7.10;;;3.20;99.90;;;;;;5004118;28;20187;-81
2021/03/04 05:11:34;;;;;;;9.90;6.17;;;3.10;99.90;;;;;;5012991;28;20537;-81
2021/03/04 05:14:01;;;;;;;10.83;6.60;;;3.20;99.90;;;;;;5015613;28;20205;-81
2021/03/04 05:16:27;;;;;;;13.60;6.80;;;3.20;99.90;;;;;;4998249;28;20888;-81
2021/03/04 05:18:52;;;;;;;9.63;6.13;;;3.10;99.90;;;;;;5008609;28;20447;-81
2021/03/04 05:21:18;;;;;;;9.43;6.57;;;3.20;99.90;;;;;;5014354;28;20566;-81
2021/03/04 05:23:43;;;;;;;11.93;7.43;;;3.20;99.90;;;;;;5010130;28;20243;-81
2021/03/04 05:26:09;;;;;;;9.67;7.07;;;3.20;99.90;;;;;;5006930;28;20209;-81
2021/03/04 05:28:35;;;;;;;7.80;5.67;;;3.20;99.90;;;;;;5012551;28;20181;-81
2021/03/04 05:31:00;;;;;;;8.37;5.80;;;3.20;99.90;;;;;;5005847;28;20174;-81
2021/03/04 05:33:26;;;;;;;8.17;7.00;;;3.20;99.90;;;;;;5016014;28;20217;-81
2021/03/04 05:35:52;;;;;;;8.70;7.10;;;3.30;99.90;;;;;;5006642;28;20221;-81
2021/03/04 05:38:17;;;;;;;8.10;6.83;;;3.30;99.90;;;;;;5008667;28;20185;-81
2021/03/04 05:40:43;;;;;;;8.50;5.70;;;3.30;99.90;;;;;;5001441;28;20571;-81
2021/03/04 05:43:10;;;;;;;7.97;5.10;;;3.30;99.90;;;;;;5006440;28;20576;-81
2021/03/04 05:45:39;;;;;;;8.87;6.00;;;3.30;99.90;;;;;;5016054;28;20606;-81
2021/03/04 05:48:09;;;;;;;10.30;6.47;;;3.30;99.90;;;;;;5032125;28;20414;-81
2021/03/04 05:50:42;;;;;;;9.67;5.60;;;3.30;99.90;;;;;;5001850;28;20435;-81
2021/03/04 05:53:14;;;;;;;8.70;5.57;;;3.20;99.90;;;;;;5005722;28;20451;-81
2021/03/04 05:55:44;;;;;;;8.00;5.70;;;3.20;99.90;;;;;;5015624;28;20519;-81
2021/03/04 05:58:11;;;;;;;6.77;5.33;;;3.20;99.90;;;;;;5009160;28;20421;-81
2021/03/04 06:00:37;;;;;;;13.33;5.20;;;3.20;99.90;;;;;;5006464;28;20496;-81
2021/03/04 06:03:05;;;;;;;5.43;4.87;;;3.20;99.90;;;;;;5006757;28;20428;-81
2021/03/04 06:05:31;;;;;;;7.13;5.30;;;3.10;99.90;;;;;;5010235;28;20495;-81
2021/03/04 06:07:57;;;;;;;8.90;5.30;;;3.20;99.90;;;;;;5007298;28;20442;-82
2021/03/04 06:10:22;;;;;;;6.07;5.00;;;3.30;99.90;;;;;;5000367;28;20456;-81
2021/03/04 06:12:48;;;;;;;7.87;5.43;;;3.20;99.90;;;;;;5010849;28;20254;-81
2021/03/04 06:15:14;;;;;;;6.90;5.37;;;3.30;99.90;;;;;;5011357;28;20223;-81
2021/03/04 06:17:55;;;;;;;9.03;5.00;;;3.30;99.90;;;;;;5002826;28;20673;-81
2021/03/04 06:20:22;;;;;;;7.37;4.80;;;3.40;99.90;;;;;;5022962;28;20184;-81
2021/03/04 06:22:48;;;;;;;6.80;5.40;;;3.40;99.90;;;;;;5011230;28;20969;-81
2021/03/04 06:25:14;;;;;;;4.13;3.73;;;3.40;99.90;;;;;;5012193;28;20462;-81
2021/03/04 06:27:42;;;;;;;4.87;4.30;;;3.40;99.90;;;;;;5006679;28;20529;-83
2021/03/04 06:30:10;;;;;;;6.10;4.87;;;3.50;99.90;;;;;;5011798;28;20440;-84
2021/03/04 06:32:37;;;;;;;11.47;4.27;;;3.40;99.90;;;;;;5002400;28;20412;-84
2021/03/04 06:35:09;;;;;;;5.10;4.40;;;3.40;99.90;;;;;;5008363;28;20484;-84
2021/03/04 06:37:45;;;;;;;5.00;4.60;;;3.30;99.90;;;;;;5012064;28;20439;-84
2021/03/04 06:40:32;;;;;;;7.00;5.10;;;3.30;99.90;;;;;;5008408;28;20409;-84
2021/03/04 06:42:59;;;;;;;5.07;4.57;;;3.30;99.90;;;;;;5008136;28;20758;-84
2021/03/04 06:45:29;;;;;;;4.30;3.77;;;3.40;99.90;;;;;;5025339;28;20846;-84
2021/03/04 06:48:09;;;;;;;5.17;4.67;;;3.40;99.90;;;;;;5009350;28;21196;-85
2021/03/04 06:50:37;;;;;;;9.13;4.63;;;3.40;99.90;;;;;;5006457;28;20455;-83
2021/03/04 06:53:20;;;;;;;4.80;4.30;;;3.40;99.90;;;;;;5002057;28;20413;-85
2021/03/04 06:55:51;;;;;;;5.07;4.57;;;3.40;99.90;;;;;;5012776;28;20917;-84
2021/03/04 06:58:34;;;;;;;6.60;4.20;;;3.40;99.90;;;;;;5008048;28;20446;-84
2021/03/04 07:01:06;;;;;;;5.03;3.83;;;3.50;99.90;;;;;;5008662;28;20420;-84
2021/03/04 07:03:42;;;;;;;5.23;4.67;;;3.60;99.90;;;;;;5018027;28;20425;-83
2021/03/04 07:06:10;;;;;;;5.80;4.93;;;3.60;99.90;;;;;;5001484;28;20458;-83
2021/03/04 07:08:46;;;;;;;6.93;4.00;;;3.60;99.90;;;;;;4999749;28;20427;-84
2021/03/04 07:11:18;;;;;;;6.90;4.60;;;3.60;99.90;;;;;;5023083;28;20429;-83
2021/03/04 07:13:45;;;;;;;4.50;4.00;;;3.70;99.90;;;;;;5003119;28;20502;-83
2021/03/04 07:16:17;;;;;;;7.80;4.17;;;3.70;99.90;;;;;;4999007;28;20427;-84
2021/03/04 07:18:53;;;;;;;4.83;4.43;;;3.70;99.90;;;;;;5004645;28;20470;-84
2021/03/04 07:21:21;;;;;;;4.90;3.90;;;3.60;99.90;;;;;;5006369;28;20437;-84
2021/03/04 07:23:47;;;;;;;4.57;4.17;;;3.60;99.90;;;;;;5014349;28;20421;-88
2021/03/04 07:26:15;;;;;;;4.70;4.13;;;3.60;99.90;;;;;;5005043;28;20468;-85
2021/03/04 07:28:43;;;;;;;4.77;4.37;;;3.70;99.90;;;;;;5002269;28;20753;-83
2021/03/04 07:31:10;;;;;;;5.90;4.17;;;3.70;99.90;;;;;;5001871;28;20524;-84
2021/03/04 07:33:38;;;;;;;4.43;4.10;;;3.70;99.90;;;;;;5021884;28;20427;-85
2021/03/04 07:36:06;;;;;;;5.20;4.70;;;3.70;99.90;;;;;;5006192;28;20440;-85
2021/03/04 07:38:33;;;;;;;4.60;4.20;;;3.80;99.90;;;;;;5006351;28;20433;-85
2021/03/04 07:41:07;;;;;;;8.97;5.23;;;3.80;99.90;;;;;;5007966;28;20434;-83
2021/03/04 07:43:57;;;;;;;5.60;5.00;;;3.70;99.90;;;;;;5007836;28;20440;-83
2021/03/04 07:46:42;;;;;;;6.50;5.37;;;3.70;99.90;;;;;;4996485;28;20454;-82
2021/03/04 07:49:08;;;;;;;6.10;5.50;;;3.70;99.90;;;;;;5007054;28;20908;-82
2021/03/04 07:51:45;;;;;;;6.20;5.33;;;3.80;99.90;;;;;;5008366;28;20428;-82
2021/03/04 07:54:11;;;;;;;11.87;5.43;;;3.80;99.90;;;;;;5006158;28;20428;-81
2021/03/04 07:56:37;;;;;;;4.90;4.33;;;3.80;99.90;;;;;;5005203;28;20739;-81
2021/03/04 07:59:16;;;;;;;5.70;5.10;;;3.80;99.90;;;;;;5006687;28;20442;-83
2021/03/04 08:01:43;;;;;;;8.13;5.57;;;3.80;99.90;;;;;;5004479;28;20177;-83
2021/03/04 08:04:26;;;;;;;9.27;5.50;;;3.90;99.90;;;;;;5010263;28;20533;-83
2021/03/04 08:06:54;;;;;;;6.13;4.40;;;3.90;99.90;;;;;;5007732;28;20493;-83
2021/03/04 08:09:24;;;;;;;9.53;5.60;;;3.80;99.90;;;;;;5029784;28;20426;-83
2021/03/04 08:11:51;;;;;;;4.60;4.17;;;3.90;99.90;;;;;;5026063;28;20453;-83
2021/03/04 08:14:17;;;;;;;4.80;4.40;;;3.90;99.90;;;;;;5025089;28;20447;-82
2021/03/04 08:16:42;;;;;;;6.67;5.00;;;3.90;99.90;;;;;;5031532;28;20413;-81
2021/03/04 08:19:08;;;;;;;6.23;5.63;;;3.90;99.90;;;;;;5025586;28;20242;-82
2021/03/04 08:21:40;;;;;;;8.27;5.27;;;3.90;99.90;;;;;;5008660;28;20269;-83
2021/03/04 08:24:12;;;;;;;5.37;4.83;;;4.00;99.90;;;;;;5004380;28;20468;-82
2021/03/04 08:26:39;;;;;;;7.23;5.33;;;4.00;99.90;;;;;;5006494;28;20743;-83
2021/03/04 08:29:10;;;;;;;6.67;5.17;;;4.00;99.90;;;;;;5004973;28;20435;-82
2021/03/04 08:31:43;;;;;;;5.00;4.57;;;4.10;99.90;;;;;;5002504;28;20437;-82
2021/03/04 08:34:09;;;;;;;8.33;5.40;;;4.00;99.90;;;;;;5014375;28;20416;-82
2021/03/04 08:36:46;;;;;;;5.40;4.83;;;4.10;99.90;;;;;;5006177;28;20540;-83
2021/03/04 08:39:12;;;;;;;7.73;5.20;;;4.10;99.90;;;;;;5003969;28;20489;-83
2021/03/04 08:41:38;;;;;;;6.53;4.53;;;4.10;99.90;;;;;;5001243;28;20454;-83
2021/03/04 08:44:22;;;;;;;5.37;4.00;;;4.30;99.90;;;;;;5000973;28;20755;-83
2021/03/04 08:46:50;;;;;;;5.13;4.60;;;4.30;99.90;;;;;;5010024;28;20174;-83
2021/03/04 08:49:22;;;;;;;6.90;4.60;;;4.30;99.90;;;;;;5000102;28;20440;-83
2021/03/04 08:51:49;;;;;;;4.97;4.53;;;4.20;99.90;;;;;;5009968;28;20431;-83
2021/03/04 08:54:26;;;;;;;3.83;3.43;;;4.20;99.90;;;;;;4999179;28;20736;-83
2021/03/04 08:56:53;;;;;;;6.97;5.83;;;4.20;99.90;;;;;;5012196;28;20421;-83
2021/03/04 08:59:26;;;;;;;5.00;4.60;;;4.30;99.90;;;;;;4997260;28;20432;-84
2021/03/04 09:01:53;;;;;;;4.60;4.17;;;4.30;99.90;;;;;;5012269;28;20425;-83
2021/03/04 09:04:21;;;;;;;7.60;4.70;;;4.40;99.90;;;;;;5006179;28;20507;-84
2021/03/04 09:06:47;;;;;;;4.70;4.40;;;4.40;99.90;;;;;;5007620;28;20738;-84
2021/03/04 09:09:28;;;;;;;5.33;4.30;;;4.50;99.90;;;;;;5007838;28;20436;-83
2021/03/04 09:11:55;;;;;;;6.90;4.50;;;4.50;99.90;;;;;;5006117;28;20457;-83
2021/03/04 09:14:31;;;;;;;10.10;4.30;;;4.50;99.90;;;;;;5004533;28;20442;-83
2021/03/04 09:16:57;;;;;;;4.60;4.20;;;4.60;99.90;;;;;;5008593;28;20808;-83
2021/03/04 09:19:26;;;;;;;6.27;4.37;;;4.50;99.90;;;;;;5003697;28;20437;-83
2021/03/04 09:21:52;;;;;;;4.10;3.80;;;4.50;99.90;;;;;;5002378;28;20504;-83
2021/03/04 09:24:18;;;;;;;8.67;4.00;;;4.40;99.90;;;;;;5003265;28;20834;-83
2021/03/04 09:26:44;;;;;;;10.93;7.20;;;4.50;99.90;;;;;;5009642;28;20429;-82
2021/03/04 09:29:10;;;;;;;3.50;3.30;;;4.70;99.90;;;;;;5000752;28;20450;-82
2021/03/04 09:31:36;;;;;;;5.03;4.30;;;4.60;99.90;;;;;;5009189;28;20175;-82
2021/03/04 09:34:03;;;;;;;4.90;4.43;;;4.70;99.90;;;;;;5009101;28;20425;-82
2021/03/04 09:36:30;;;;;;;6.23;4.83;;;4.80;99.90;;;;;;5008353;28;20183;-82
2021/03/04 09:38:56;;;;;;;5.90;4.77;;;4.70;99.90;;;;;;5011176;28;20520;-82
2021/03/04 09:41:24;;;;;;;4.33;3.93;;;4.70;99.90;;;;;;5010596;28;20437;-82
2021/03/04 09:43:52;;;;;;;8.10;4.73;;;4.80;99.90;;;;;;5011506;28;20886;-83
2021/03/04 09:46:35;;;;;;;6.10;4.20;;;4.80;99.90;;;;;;5006647;28;20457;-83
2021/03/04 09:49:12;;;;;;;8.10;4.70;;;4.90;99.90;;;;;;5004418;28;20516;-83
2021/03/04 09:51:47;;;;;;;5.00;4.60;;;4.90;99.90;;;;;;4999097;28;20468;-83
2021/03/04 09:54:29;;;;;;;10.23;5.50;;;4.90;99.90;;;;;;5009927;28;20434;-83
2021/03/04 09:57:05;;;;;;;5.60;4.60;;;5.00;99.90;;;;;;5006204;28;20432;-83
2021/03/04 09:59:31;;;;;;;6.97;5.47;;;5.00;99.90;;;;;;5009304;28;20422;-83
2021/03/04 10:01:58;;;;;;;6.50;5.23;;;5.00;99.90;;;;;;5013444;28;20553;-83
2021/03/04 10:04:27;;;;;;;6.70;5.23;;;5.10;99.90;;;;;;5019210;28;20186;-83
2021/03/04 10:06:53;;;;;;;7.40;5.33;;;5.10;99.90;;;;;;5017133;28;20515;-82
2021/03/04 10:09:25;;;;;;;7.27;5.43;;;5.00;99.90;;;;;;5017939;28;20760;-83
2021/03/04 10:11:51;;;;;;;6.60;5.73;;;4.90;99.90;;;;;;5008762;28;20424;-83
2021/03/04 10:14:17;;;;;;;7.47;5.63;;;5.00;99.90;;;;;;5007653;28;20433;-83
2021/03/04 10:16:54;;;;;;;5.90;5.23;;;5.00;99.90;;;;;;5010538;28;20197;-83
2021/03/04 10:19:20;;;;;;;9.57;5.63;;;5.10;99.90;;;;;;5010726;28;20787;-83
2021/03/04 10:21:45;;;;;;;5.60;5.10;;;5.30;99.90;;;;;;5017122;28;20421;-83
2021/03/04 10:24:13;;;;;;;8.77;5.73;;;5.30;99.90;;;;;;5014957;28;20171;-83
2021/03/04 10:26:39;;;;;;;6.63;5.50;;;5.20;99.90;;;;;;5013414;28;20618;-83
2021/03/04 10:29:05;;;;;;;13.30;5.97;;;5.10;99.90;;;;;;5000699;28;20433;-85
2021/03/04 10:31:31;;;;;;;6.90;4.10;;;5.10;99.90;;;;;;5009508;28;20513;-83
2021/03/04 10:33:56;;;;;;;7.70;5.60;;;5.20;99.90;;;;;;5012519;28;20495;-84
2021/03/04 10:36:22;;;;;;;6.07;5.10;;;5.20;99.90;;;;;;5001727;28;20483;-83
2021/03/04 10:38:47;;;;;;;8.90;6.03;;;5.20;99.90;;;;;;5006745;28;20192;-84
2021/03/04 10:41:13;;;;;;;8.20;5.27;;;5.20;99.90;;;;;;5013611;28;20220;-83
2021/03/04 10:43:39;;;;;;;7.83;5.60;;;5.00;99.90;;;;;;5007526;28;20229;-83
2021/03/04 10:46:04;;;;;;;7.37;5.03;;;5.10;99.90;;;;;;5008914;28;20199;-82
2021/03/04 10:48:30;;;;;;;9.60;6.03;;;5.20;99.90;;;;;;5011618;28;20183;-83
2021/03/04 10:50:56;;;;;;;9.03;5.73;;;5.30;99.90;;;;;;5010874;28;20175;-83
2021/03/04 10:53:21;;;;;;;6.07;5.27;;;5.30;99.90;;;;;;5008892;28;20634;-84
2021/03/04 10:55:47;;;;;;;5.43;4.93;;;5.40;99.90;;;;;;5003128;28;20241;-84
2021/03/04 10:58:13;;;;;;;9.37;5.30;;;5.40;99.90;;;;;;5006268;28;20178;-84
2021/03/04 11:00:40;;;;;;;7.03;5.80;;;5.40;99.90;;;;;;5029448;28;20182;-84
2021/03/04 11:03:06;;;;;;;16.73;5.30;;;5.50;99.90;;;;;;5013013;28;20179;-84
2021/03/04 11:05:32;;;;;;;7.40;4.67;;;5.60;99.90;;;;;;5007268;28;20981;-84
2021/03/04 11:07:57;;;;;;;6.73;4.50;;;5.70;99.90;;;;;;5013475;28;20210;-84
2021/03/04 11:10:23;;;;;;;5.80;5.30;;;5.70;99.90;;;;;;5007965;28;20270;-82
2021/03/04 11:12:50;;;;;;;5.30;4.80;;;5.70;99.90;;;;;;4999524;28;20205;-82
2021/03/04 11:15:16;;;;;;;5.70;4.43;;;5.80;99.90;;;;;;5009312;28;20201;-83
2021/03/04 11:17:43;;;;;;;7.37;5.70;;;5.70;99.90;;;;;;5013779;28;20430;-82
2021/03/04 11:20:09;;;;;;;6.60;5.53;;;5.80;99.90;;;;;;5013558;28;20452;-83
2021/03/04 11:22:35;;;;;;;6.47;5.30;;;5.80;99.90;;;;;;5011317;28;20421;-83
2021/03/04 11:25:01;;;;;;;8.93;5.27;;;5.80;99.90;;;;;;4998396;28;20516;-83
2021/03/04 11:27:27;;;;;;;5.47;4.27;;;5.80;99.90;;;;;;5003337;28;20186;-85
2021/03/04 11:29:52;;;;;;;7.80;4.47;;;5.70;99.90;;;;;;5008870;28;20421;-82
2021/03/04 11:32:18;;;;;;;8.50;5.13;;;5.70;99.90;;;;;;5007912;28;20493;-83
2021/03/04 11:34:44;;;;;;;14.27;5.63;;;5.70;99.90;;;;;;5006609;28;20186;-83
2021/03/04 11:37:09;;;;;;;6.60;4.40;;;5.70;99.90;;;;;;5009447;28;20178;-83
2021/03/04 11:39:35;;;;;;;6.73;4.70;;;5.70;99.90;;;;;;5005224;28;20174;-83
2021/03/04 11:42:01;;;;;;;6.67;5.33;;;5.70;99.90;;;;;;5012100;28;20209;-83
2021/03/04 11:44:27;;;;;;;6.20;4.63;;;5.70;99.90;;;;;;5001791;28;20941;-83
2021/03/04 11:46:52;;;;;;;6.17;4.70;;;5.80;99.90;;;;;;4998058;28;20183;-83
2021/03/04 11:49:18;;;;;;;6.67;4.87;;;5.90;99.90;;;;;;5001739;28;20198;-84
2021/03/04 11:51:44;;;;;;;5.40;4.23;;;6.00;99.90;;;;;;4995335;28;20179;-83
2021/03/04 11:54:09;;;;;;;7.60;5.20;;;5.90;99.90;;;;;;5005723;28;20219;-83
2021/03/04 11:56:35;;;;;;;7.73;4.73;;;5.90;99.90;;;;;;4999589;28;20179;-87
2021/03/04 11:59:02;;;;;;;8.80;5.87;;;5.80;99.90;;;;;;5013709;28;20225;-85
2021/03/04 12:01:28;;;;;;;5.20;4.80;;;5.90;99.90;;;;;;5006262;28;20179;-84
2021/03/04 12:03:54;;;;;;;5.70;5.20;;;6.00;99.90;;;;;;5008938;28;20771;-85
2021/03/04 12:06:20;;;;;;;7.73;4.90;;;6.00;99.90;;;;;;5005384;28;20454;-85
2021/03/04 12:08:46;;;;;;;9.43;5.27;;;6.00;99.90;;;;;;5004808;28;20635;-85
2021/03/04 12:11:12;;;;;;;11.03;5.27;;;6.00;99.90;;;;;;5008324;28;20261;-86
2021/03/04 12:13:38;;;;;;;8.03;4.70;;;5.90;99.90;;;;;;4996119;28;20968;-88
2021/03/04 12:16:06;;;;;;;7.17;4.53;;;5.90;99.90;;;;;;5008325;28;20493;-87
2021/03/04 12:18:32;;;;;;;7.53;4.40;;;5.90;99.90;;;;;;5010511;28;20174;-84
2021/03/04 12:20:59;;;;;;;5.70;4.10;;;5.90;99.90;;;;;;5009350;28;20467;-86
2021/03/04 12:23:25;;;;;;;7.67;4.60;;;5.90;99.90;;;;;;5004053;28;20756;-84
2021/03/04 12:25:51;;;;;;;9.10;4.63;;;6.00;99.90;;;;;;5011137;28;20481;-85
2021/03/04 12:28:16;;;;;;;8.70;4.80;;;6.00;99.90;;;;;;5006320;28;20426;-86
2021/03/04 12:30:42;;;;;;;9.43;4.63;;;6.00;99.90;;;;;;5003853;28;20175;-86
2021/03/04 12:33:08;;;;;;;5.70;4.50;;;6.00;99.90;;;;;;5010718;28;20191;-85
2021/03/04 12:35:34;;;;;;;4.20;3.80;;;6.00;99.90;;;;;;5002884;28;20193;-85
2021/03/04 12:37:59;;;;;;;8.43;3.77;;;6.00;99.90;;;;;;5004744;28;20236;-85
2021/03/04 12:40:27;;;;;;;4.93;4.40;;;6.00;99.90;;;;;;5010660;28;20432;-85
2021/03/04 12:42:53;;;;;;;7.20;4.13;;;6.10;99.90;;;;;;5003936;28;20197;-86
2021/03/04 12:45:19;;;;;;;3.80;3.50;;;6.10;99.90;;;;;;5003839;28;20457;-88
2021/03/04 12:47:46;;;;;;;5.40;3.93;;;6.10;99.90;;;;;;5005299;28;20174;-85
2021/03/04 12:50:12;;;;;;;4.40;4.00;;;6.20;99.90;;;;;;5009953;28;20587;-89
2021/03/04 12:52:37;;;;;;;7.03;4.37;;;6.20;99.90;;;;;;5006787;28;20421;-88
2021/03/04 12:55:04;;;;;;;7.37;4.47;;;6.30;99.90;;;;;;5007783;28;20437;-88
2021/03/04 12:57:29;;;;;;;9.73;5.83;;;6.30;99.90;;;;;;4997765;28;20186;-90